createdAt,value
2018-11-28T00:00:33.790Z,10.03
2018-11-28T00:03:08.348Z,9.47
2018-11-28T00:05:37.393Z,9.23
2018-11-28T00:08:06.379Z,7.37
2018-11-28T00:10:35.389Z,7.17
2018-11-28T00:13:04.364Z,7.13
2018-11-28T00:15:33.499Z,7.03
2018-11-28T00:18:02.575Z,7.20
2018-11-28T00:20:31.772Z,6.90
2018-11-28T00:23:00.901Z,6.80
2018-11-28T00:25:30.152Z,6.63
2018-11-28T00:27:59.164Z,7.03
2018-11-28T00:30:28.209Z,6.67
2018-11-28T00:32:57.324Z,7.07
2018-11-28T00:35:26.315Z,5.90
2018-11-28T00:37:55.401Z,6.33
2018-11-28T00:40:24.759Z,5.80
2018-11-28T00:42:53.770Z,5.70
2018-11-28T00:45:24.684Z,6.13
2018-11-28T00:47:53.673Z,6.70
2018-11-28T00:50:25.858Z,6.60
2018-11-28T00:52:55.088Z,6.27
2018-11-28T00:55:24.486Z,6.20
2018-11-28T00:57:53.833Z,6.70
2018-11-28T01:00:25.002Z,6.40
2018-11-28T01:02:54.096Z,7.30
2018-11-28T01:05:23.119Z,9.80
2018-11-28T01:07:53.651Z,11.80
2018-11-28T01:10:24.185Z,13.67
2018-11-28T01:12:54.474Z,13.43
2018-11-28T01:15:23.564Z,11.30
2018-11-28T01:17:52.547Z,11.27
2018-11-28T01:20:23.045Z,11.53
2018-11-28T01:22:52.043Z,12.27
2018-11-28T01:25:22.319Z,12.07
2018-11-28T01:27:51.856Z,11.67
2018-11-28T01:30:23.814Z,10.70
2018-11-28T01:32:53.017Z,10.80
2018-11-28T01:35:22.605Z,10.97
2018-11-28T01:37:51.790Z,12.03
2018-11-28T01:40:22.602Z,11.40
2018-11-28T01:42:51.648Z,10.83
2018-11-28T01:45:22.324Z,12.83
2018-11-28T01:47:51.337Z,12.07
2018-11-28T01:50:21.615Z,11.47
2018-11-28T01:52:51.017Z,11.50
2018-11-28T01:55:22.035Z,13.00
2018-11-28T01:57:51.230Z,13.47
2018-11-28T02:00:25.861Z,13.10
2018-11-28T02:02:59.525Z,12.63
2018-11-28T02:05:28.983Z,12.20
2018-11-28T02:07:57.965Z,12.43
2018-11-28T02:10:27.032Z,12.97
2018-11-28T02:12:56.025Z,12.90
2018-11-28T02:15:25.940Z,14.03
2018-11-28T02:17:56.082Z,13.10
2018-11-28T02:20:25.131Z,13.50
2018-11-28T02:22:54.235Z,12.90
2018-11-28T02:25:23.256Z,12.93
2018-11-28T02:27:52.655Z,12.57
2018-11-28T02:30:21.788Z,13.30
2018-11-28T02:32:51.105Z,12.57
2018-11-28T02:35:20.386Z,13.50
2018-11-28T02:37:50.011Z,13.43
2018-11-28T02:40:20.394Z,14.40
2018-11-28T02:42:50.567Z,13.83
2018-11-28T02:45:21.948Z,12.23
2018-11-28T02:52:38.941Z,12.20
2018-11-28T02:55:10.075Z,13.83
2018-11-28T02:57:39.612Z,14.13
2018-11-28T03:00:12.960Z,13.50
2018-11-28T03:02:41.967Z,13.57
2018-11-28T03:05:12.501Z,14.50
2018-11-28T03:07:41.663Z,11.87
2018-11-28T03:10:16.580Z,13.10
2018-11-28T03:12:45.625Z,13.67
2018-11-28T03:15:19.986Z,14.63
2018-11-28T03:17:48.980Z,14.43
2018-11-28T03:20:17.979Z,12.87
2018-11-28T03:22:47.022Z,13.20
2018-11-28T03:25:16.011Z,15.13
2018-11-28T03:27:45.035Z,13.47
2018-11-28T03:30:15.572Z,14.40
2018-11-28T03:32:44.619Z,15.20
2018-11-28T03:35:15.084Z,14.10
2018-11-28T03:37:44.536Z,14.27
2018-11-28T03:40:14.068Z,13.10
2018-11-28T03:42:43.293Z,12.43
2018-11-28T03:45:14.800Z,13.37
2018-11-28T03:47:44.682Z,12.77
2018-11-28T03:50:16.679Z,13.53
2018-11-28T03:52:45.693Z,13.50
2018-11-28T03:55:15.938Z,14.40
2018-11-28T03:57:48.118Z,15.37
2018-11-28T04:00:20.680Z,15.17
2018-11-28T04:02:50.433Z,15.10
2018-11-28T04:05:19.752Z,13.63
2018-11-28T04:07:48.737Z,13.43
2018-11-28T04:10:17.700Z,14.27
2018-11-28T04:12:46.858Z,13.90
2018-11-28T04:15:20.588Z,12.40
2018-11-28T04:17:49.910Z,13.90
2018-11-28T04:20:25.570Z,13.47
2018-11-28T04:22:54.546Z,15.07
2018-11-28T04:25:24.069Z,15.20
2018-11-28T04:27:53.704Z,13.00
2018-11-28T04:30:24.264Z,14.50
2018-11-28T04:32:55.748Z,14.40
2018-11-28T04:35:25.034Z,15.80
2018-11-28T04:37:54.080Z,15.20
2018-11-28T04:40:23.431Z,15.97
2018-11-28T04:42:52.503Z,15.50
2018-11-28T04:45:25.281Z,15.57
2018-11-28T04:47:55.788Z,15.63
2018-11-28T04:50:24.781Z,17.10
2018-11-28T04:52:53.805Z,15.00
2018-11-28T04:55:22.829Z,15.07
2018-11-28T04:57:52.061Z,15.90
2018-11-28T05:00:26.471Z,15.97
2018-11-28T05:02:58.022Z,16.50
2018-11-28T05:05:27.409Z,15.77
2018-11-28T05:07:56.401Z,17.17
2018-11-28T05:10:29.755Z,17.13
2018-11-28T05:12:59.942Z,17.27
2018-11-28T05:15:34.081Z,15.90
2018-11-28T05:18:03.386Z,17.77
2018-11-28T05:20:34.220Z,16.03
2018-11-28T05:23:04.762Z,16.57
2018-11-28T05:25:34.937Z,18.50
2018-11-28T05:28:04.130Z,16.77
2018-11-28T05:30:35.593Z,17.40
2018-11-28T05:33:03.285Z,18.47
2018-11-28T05:35:38.294Z,20.40
2018-11-28T05:38:10.576Z,19.00
2018-11-28T05:40:39.706Z,16.43
2018-11-28T05:43:08.859Z,20.07
2018-11-28T05:45:38.020Z,20.60
2018-11-28T05:48:07.061Z,22.70
2018-11-28T05:50:36.345Z,21.97
2018-11-28T05:53:05.899Z,24.17
2018-11-28T05:55:34.918Z,21.10
2018-11-28T05:58:05.830Z,24.17
2018-11-28T06:00:37.711Z,24.13
2018-11-28T06:03:08.726Z,22.43
2018-11-28T06:05:37.819Z,23.93
2018-11-28T06:08:08.330Z,24.50
2018-11-28T06:10:37.470Z,22.70
2018-11-28T06:13:06.838Z,23.73
2018-11-28T06:15:35.905Z,24.97
2018-11-28T06:18:05.181Z,24.87
2018-11-28T06:20:34.755Z,28.60
2018-11-28T06:23:04.861Z,24.27
2018-11-28T06:25:34.544Z,24.90
2018-11-28T06:28:03.673Z,22.37
2018-11-28T06:30:32.760Z,23.27
2018-11-28T06:33:01.764Z,22.43
2018-11-28T06:35:30.776Z,22.17
2018-11-28T06:38:00.028Z,22.43
2018-11-28T06:40:29.178Z,23.90
2018-11-28T06:42:58.162Z,23.23
2018-11-28T06:45:27.176Z,24.50
2018-11-28T06:47:57.081Z,22.53
2018-11-28T06:50:26.377Z,22.23
2018-11-28T06:52:55.372Z,22.63
2018-11-28T06:55:24.764Z,21.90
2018-11-28T06:57:53.809Z,23.50
2018-11-28T07:00:23.522Z,23.53
2018-11-28T07:02:53.904Z,23.83
2018-11-28T07:05:23.717Z,23.73
2018-11-28T07:07:53.246Z,23.43
2018-11-28T07:10:23.076Z,21.50
2018-11-28T07:12:53.699Z,24.70
2018-11-28T07:15:24.410Z,21.67
2018-11-28T07:17:53.460Z,22.00
2018-11-28T07:20:29.225Z,23.40
2018-11-28T07:22:58.549Z,21.20
2018-11-28T07:25:27.548Z,22.83
2018-11-28T07:27:56.554Z,21.80
2018-11-28T07:30:26.647Z,22.13
2018-11-28T07:32:57.583Z,23.33
2018-11-28T07:35:26.995Z,24.23
2018-11-28T07:37:56.410Z,23.40
2018-11-28T07:40:26.877Z,23.97
2018-11-28T07:43:02.214Z,23.10
2018-11-28T07:45:31.352Z,22.90
2018-11-28T07:48:00.369Z,21.97
2018-11-28T07:50:29.493Z,21.20
2018-11-28T07:52:58.524Z,21.97
2018-11-28T07:55:27.540Z,21.13
2018-11-28T07:57:56.828Z,22.80
2018-11-28T08:00:25.977Z,22.23
2018-11-28T08:02:55.057Z,19.30
2018-11-28T08:05:24.227Z,20.63
2018-11-28T08:07:53.368Z,21.43
2018-11-28T08:10:24.483Z,22.40
2018-11-28T08:12:58.633Z,27.90
2018-11-28T08:15:27.647Z,24.10
2018-11-28T08:17:56.911Z,19.43
2018-11-28T08:20:25.972Z,20.87
2018-11-28T08:22:54.957Z,18.40
2018-11-28T08:25:27.671Z,18.13
2018-11-28T08:27:53.186Z,18.10
2018-11-28T08:30:24.585Z,20.23
2018-11-28T08:32:54.991Z,18.23
2018-11-28T08:35:24.377Z,19.67
2018-11-28T08:37:53.390Z,19.50
2018-11-28T08:40:25.882Z,17.73
2018-11-28T08:42:57.817Z,19.07
2018-11-28T08:45:26.794Z,19.77
2018-11-28T08:47:58.651Z,18.20
2018-11-28T08:50:35.622Z,20.33
2018-11-28T08:53:05.339Z,18.77
2018-11-28T08:55:34.350Z,15.73
2018-11-28T08:58:03.355Z,17.27
2018-11-28T09:00:32.486Z,15.87
2018-11-28T09:03:01.801Z,16.00
2018-11-28T09:05:31.082Z,16.00
2018-11-28T09:08:00.346Z,18.00
2018-11-28T09:10:29.568Z,15.83
2018-11-28T09:13:03.549Z,14.07
2018-11-28T09:15:29.235Z,14.27
2018-11-28T09:17:58.514Z,16.30
2018-11-28T09:20:27.641Z,16.57
2018-11-28T09:22:56.616Z,14.90
2018-11-28T09:25:25.794Z,12.83
2018-11-28T09:27:56.684Z,13.63
2018-11-28T09:30:25.793Z,13.17
2018-11-28T09:32:54.935Z,14.03
2018-11-28T09:35:24.051Z,14.63
2018-11-28T09:37:53.261Z,14.97
2018-11-28T09:40:25.269Z,13.97
2018-11-28T09:42:57.776Z,12.90
2018-11-28T09:45:27.267Z,13.20
2018-11-28T09:47:56.408Z,12.60
2018-11-28T09:50:26.480Z,13.23
2018-11-28T09:52:56.485Z,12.70
2018-11-28T09:55:27.249Z,11.83
2018-11-28T09:57:57.915Z,11.73
2018-11-28T10:00:29.098Z,12.43
2018-11-28T10:03:00.210Z,12.07
2018-11-28T10:05:34.383Z,11.07
2018-11-28T10:08:03.609Z,10.80
2018-11-28T10:10:32.863Z,10.87
2018-11-28T10:13:02.121Z,10.17
2018-11-28T10:15:35.463Z,9.50
2018-11-28T10:18:00.161Z,9.13
2018-11-28T10:20:29.292Z,9.40
2018-11-28T10:22:58.287Z,8.57
2018-11-28T10:25:27.599Z,9.43
2018-11-28T10:28:03.203Z,9.83
2018-11-28T10:30:37.014Z,8.73
2018-11-28T10:33:10.948Z,8.30
2018-11-28T10:35:41.185Z,8.90
2018-11-28T10:38:10.577Z,9.00
2018-11-28T10:40:39.716Z,9.03
2018-11-28T10:43:09.889Z,8.40
2018-11-28T10:45:38.996Z,8.13
2018-11-28T10:48:11.043Z,8.63
2018-11-28T10:50:40.141Z,8.37
2018-11-28T10:53:09.201Z,8.60
2018-11-28T10:55:38.440Z,6.90
2018-11-28T10:58:08.644Z,7.33
2018-11-28T11:00:43.280Z,7.80
2018-11-28T11:03:17.776Z,7.10
2018-11-28T11:05:52.176Z,7.57
2018-11-28T11:08:26.377Z,7.33
2018-11-28T11:11:31.905Z,7.93
2018-11-28T11:14:06.430Z,9.43
2018-11-28T11:16:35.522Z,9.37
2018-11-28T11:19:04.793Z,7.37
2018-11-28T11:21:33.817Z,7.40
2018-11-28T11:24:04.361Z,8.17
2018-11-28T11:26:33.994Z,7.93
2018-11-28T11:29:03.247Z,10.00
2018-11-28T11:31:32.712Z,7.50
2018-11-28T11:34:02.060Z,8.00
2018-11-28T11:36:31.281Z,7.70
2018-11-28T11:39:01.953Z,8.37
2018-11-28T11:41:31.389Z,8.07
2018-11-28T11:44:00.633Z,8.27
2018-11-28T11:46:30.351Z,8.53
2018-11-28T11:48:59.362Z,7.63
2018-11-28T11:51:28.596Z,8.00
2018-11-28T11:53:57.914Z,8.87
2018-11-28T11:56:27.028Z,8.90
2018-11-28T11:58:56.019Z,7.83
2018-11-28T12:01:25.028Z,8.13
2018-11-28T12:03:54.268Z,7.50
2018-11-28T12:06:23.306Z,7.93
2018-11-28T12:08:52.302Z,8.33
2018-11-28T12:11:21.363Z,8.43
2018-11-28T12:13:50.366Z,7.47
2018-11-28T12:16:21.714Z,8.17
2018-11-28T12:18:48.589Z,7.57
2018-11-28T12:21:17.806Z,8.53
2018-11-28T12:23:46.777Z,8.13
2018-11-28T12:26:15.992Z,7.87
2018-11-28T12:28:45.122Z,8.17
2018-11-28T12:31:14.169Z,8.03
2018-11-28T12:33:43.242Z,7.97
2018-11-28T12:36:12.596Z,8.20
2018-11-28T12:38:41.637Z,7.93
2018-11-28T12:41:10.886Z,8.23
2018-11-28T12:43:39.976Z,7.60
2018-11-28T12:46:08.949Z,7.80
2018-11-28T12:48:38.346Z,7.50
2018-11-28T12:51:07.429Z,8.23
2018-11-28T12:53:36.757Z,8.10
2018-11-28T12:56:06.472Z,8.57
2018-11-28T12:58:35.475Z,8.00
2018-11-28T13:01:04.557Z,8.63
2018-11-28T13:03:33.710Z,8.13
2018-11-28T13:06:02.692Z,9.40
2018-11-28T13:08:31.925Z,8.60
2018-11-28T13:11:00.955Z,7.13
2018-11-28T13:13:30.013Z,8.37
2018-11-28T13:15:59.113Z,8.90
2018-11-28T13:18:28.387Z,8.30
2018-11-28T13:20:57.691Z,7.50
2018-11-28T13:23:31.036Z,8.20
2018-11-28T13:25:59.996Z,7.63
2018-11-28T13:28:29.031Z,7.90
2018-11-28T13:30:57.996Z,7.47
2018-11-28T13:33:27.356Z,8.40
2018-11-28T13:35:56.347Z,7.67
2018-11-28T13:38:25.630Z,7.17
2018-11-28T13:40:54.622Z,7.20
2018-11-28T13:43:23.742Z,8.20
2018-11-28T13:45:52.779Z,7.40
2018-11-28T13:48:21.792Z,6.97
2018-11-28T13:50:50.779Z,7.20
2018-11-28T13:53:19.894Z,7.17
2018-11-28T13:56:57.298Z,7.67
2018-11-28T13:58:23.244Z,8.10
2018-11-28T14:00:52.485Z,7.90
2018-11-28T14:03:21.511Z,8.10
2018-11-28T14:05:50.556Z,8.50
2018-11-28T14:08:19.763Z,7.67
2018-11-28T14:10:49.003Z,7.53
2018-11-28T14:13:18.198Z,7.30
2018-11-28T14:15:47.196Z,7.40
2018-11-28T14:18:18.043Z,7.63
2018-11-28T14:20:47.133Z,7.07
2018-11-28T14:23:16.402Z,7.50
2018-11-28T14:25:45.689Z,7.37
2018-11-28T14:28:14.812Z,7.73
2018-11-28T14:30:44.726Z,6.80
2018-11-28T14:33:13.703Z,7.80
2018-11-28T14:35:43.089Z,7.90
2018-11-28T14:38:12.078Z,7.80
2018-11-28T14:40:41.156Z,7.90
2018-11-28T14:43:10.133Z,8.50
2018-11-28T14:45:39.193Z,8.37
2018-11-28T14:48:08.424Z,7.27
2018-11-28T14:50:37.668Z,8.27
2018-11-28T14:53:07.739Z,8.33
2018-11-28T14:55:38.573Z,8.73
2018-11-28T14:58:09.736Z,9.40
2018-11-28T15:00:38.754Z,8.27
2018-11-28T15:03:11.083Z,7.63
2018-11-28T15:06:20.879Z,9.47
2018-11-28T15:08:50.150Z,7.53
2018-11-28T15:11:19.179Z,8.87
2018-11-28T15:13:48.162Z,8.73
2018-11-28T15:16:17.229Z,8.43
2018-11-28T15:18:46.525Z,8.30
2018-11-28T15:21:15.590Z,7.70
2018-11-28T15:23:44.626Z,7.33
2018-11-28T15:26:13.849Z,7.90
2018-11-28T15:28:43.139Z,7.87
2018-11-28T15:31:12.254Z,8.57
2018-11-28T15:33:41.546Z,7.87
2018-11-28T15:36:11.180Z,7.83
2018-11-28T15:38:40.908Z,8.53
2018-11-28T15:41:10.146Z,8.20
2018-11-28T15:43:39.228Z,12.83
2018-11-28T15:46:08.257Z,8.73
2018-11-28T15:48:37.266Z,7.97
2018-11-28T15:51:06.731Z,8.43
2018-11-28T15:53:35.720Z,7.97
2018-11-28T15:56:05.061Z,8.57
2018-11-28T15:58:34.085Z,8.30
2018-11-28T16:01:03.152Z,8.17
2018-11-28T16:03:32.420Z,8.10
2018-11-28T16:06:01.519Z,12.20
2018-11-28T16:08:30.616Z,8.23
2018-11-28T16:10:59.620Z,8.53
2018-11-28T16:13:28.842Z,8.27
2018-11-28T16:15:59.014Z,8.37
2018-11-28T16:18:28.017Z,7.43
2018-11-28T16:20:58.497Z,7.70
2018-11-28T16:23:27.729Z,7.83
2018-11-28T16:25:56.769Z,7.03
2018-11-28T16:28:25.949Z,7.70
2018-11-28T16:30:55.154Z,7.57
2018-11-28T16:33:24.124Z,7.83
2018-11-28T16:35:53.350Z,8.53
2018-11-28T16:38:22.370Z,7.63
2018-11-28T16:40:52.225Z,7.70
2018-11-28T16:43:21.473Z,7.60
2018-11-28T16:45:50.517Z,7.87
2018-11-28T16:48:19.541Z,7.47
2018-11-28T16:50:51.254Z,7.87
2018-11-28T16:53:20.550Z,7.77
2018-11-28T16:55:49.760Z,7.50
2018-11-28T16:58:18.743Z,6.63
2018-11-28T17:00:47.950Z,8.97
2018-11-28T17:03:17.000Z,7.27
2018-11-28T17:05:45.998Z,7.73
2018-11-28T17:08:15.023Z,8.20
2018-11-28T17:10:44.028Z,7.50
2018-11-28T17:13:13.223Z,7.77
2018-11-28T17:15:42.251Z,8.27
2018-11-28T17:18:11.557Z,7.47
2018-11-28T17:20:42.877Z,8.83
2018-11-28T17:23:11.928Z,9.30
2018-11-28T17:25:41.292Z,9.10
2018-11-28T17:28:10.300Z,8.87
2018-11-28T17:30:39.328Z,8.63
2018-11-28T17:33:08.446Z,8.40
2018-11-28T17:35:37.644Z,9.93
2018-11-28T17:38:07.530Z,11.17
2018-11-28T17:40:37.062Z,8.80
2018-11-28T17:43:07.568Z,9.03
2018-11-28T17:45:36.973Z,9.17
2018-11-28T17:48:07.101Z,9.60
2018-11-28T17:50:43.291Z,8.87
2018-11-28T17:53:14.556Z,9.03
2018-11-28T17:55:48.781Z,8.30
2018-11-28T17:58:17.948Z,9.47
2018-11-28T18:00:47.100Z,10.33
2018-11-28T18:03:16.104Z,10.43
2018-11-28T18:05:45.090Z,9.53
2018-11-28T18:08:14.086Z,9.73
2018-11-28T18:10:43.221Z,9.70
2018-11-28T18:13:16.355Z,23.10
2018-11-28T18:15:51.333Z,12.80
2018-11-28T18:18:23.088Z,12.27
2018-11-28T18:20:52.071Z,8.83
2018-11-28T18:23:21.098Z,9.93
2018-11-28T18:25:50.121Z,12.50
2018-11-28T18:28:19.223Z,11.50
2018-11-28T18:30:48.266Z,11.03
2018-11-28T18:33:17.260Z,10.53
2018-11-28T18:35:46.272Z,11.10
2018-11-28T18:38:15.702Z,10.17
2018-11-28T18:40:44.838Z,12.07
2018-11-28T18:43:13.943Z,11.70
2018-11-28T18:45:50.150Z,12.47
2018-11-28T18:48:19.163Z,10.30
2018-11-28T18:50:48.250Z,10.47
2018-11-28T18:53:17.773Z,10.90
2018-11-28T18:55:47.132Z,9.83
2018-11-28T18:58:16.140Z,11.13
2018-11-28T19:00:46.435Z,11.97
2018-11-28T19:03:17.610Z,13.37
2018-11-28T19:05:46.970Z,11.30
2018-11-28T19:08:16.212Z,18.87
2018-11-28T19:10:45.483Z,20.23
2018-11-28T19:13:14.611Z,10.97
2018-11-28T19:15:43.604Z,12.20
2018-11-28T19:18:12.717Z,12.40
2018-11-28T19:20:41.764Z,11.87
2018-11-28T19:23:11.210Z,13.23
2018-11-28T19:25:40.336Z,13.80
2018-11-28T19:28:09.381Z,12.40
2018-11-28T19:30:41.153Z,13.70
2018-11-28T19:33:12.236Z,13.00
2018-11-28T19:35:41.441Z,23.20
2018-11-28T19:38:12.445Z,18.03
2018-11-28T19:40:46.031Z,18.23
2018-11-28T19:43:15.258Z,16.30
2018-11-28T19:45:44.473Z,17.83
2018-11-28T19:48:13.807Z,30.20
2018-11-28T19:50:43.080Z,28.53
2018-11-28T19:53:12.153Z,20.47
2018-11-28T19:55:42.232Z,19.67
2018-11-28T19:58:11.336Z,24.27
2018-11-28T20:00:42.992Z,17.43
2018-11-28T20:03:12.032Z,19.00
2018-11-28T20:05:41.558Z,17.43
2018-11-28T20:08:10.924Z,20.33
2018-11-28T20:10:39.993Z,22.37
2018-11-28T20:13:10.861Z,29.07
2018-11-28T20:15:42.741Z,25.13
2018-11-28T20:18:11.810Z,21.23
2018-11-28T20:20:40.984Z,23.53
2018-11-28T20:23:10.891Z,36.17
2018-11-28T20:25:40.419Z,27.40
2018-11-28T20:28:10.653Z,25.07
2018-11-28T20:30:41.918Z,23.23
2018-11-28T20:33:13.013Z,34.93
2018-11-28T20:35:43.489Z,31.20
2018-11-28T20:38:44.176Z,23.63
2018-11-28T20:41:13.332Z,21.50
2018-11-28T20:43:42.407Z,20.53
2018-11-28T20:46:11.501Z,20.43
2018-11-28T20:48:40.565Z,21.90
2018-11-28T20:51:09.535Z,28.57
2018-11-28T20:53:38.771Z,29.87
2018-11-28T20:56:07.846Z,23.60
2018-11-28T20:58:36.837Z,50.50
2018-11-28T21:01:05.981Z,38.63
2018-11-28T21:03:35.048Z,50.47
2018-11-28T21:06:04.077Z,24.70
2018-11-28T21:08:33.314Z,29.37
2018-11-28T21:11:02.472Z,26.70
2018-11-28T21:13:31.633Z,27.77
2018-11-28T21:16:00.781Z,26.27
2018-11-28T21:18:29.847Z,27.90
2018-11-28T21:20:59.052Z,27.27
2018-11-28T21:23:28.160Z,29.07
2018-11-28T21:25:57.209Z,25.07
2018-11-28T21:28:26.492Z,35.57
2018-11-28T21:30:55.529Z,28.53
2018-11-28T21:33:24.656Z,28.80
2018-11-28T21:35:53.951Z,30.27
2018-11-28T21:38:23.271Z,29.67
2018-11-28T21:40:52.465Z,26.00
2018-11-28T21:43:23.911Z,30.43
2018-11-28T21:45:53.560Z,30.43
2018-11-28T21:48:23.309Z,32.57
2018-11-28T21:50:52.944Z,32.70
2018-11-28T21:53:22.135Z,42.00
2018-11-28T21:55:51.484Z,36.47
2018-11-28T21:58:20.877Z,30.43
2018-11-28T22:00:50.813Z,28.10
2018-11-28T22:03:19.868Z,30.03
2018-11-28T22:05:48.874Z,30.20
2018-11-28T22:08:19.918Z,31.07
2018-11-28T22:10:49.064Z,28.90
2018-11-28T22:13:19.127Z,32.57
2018-11-28T22:15:49.219Z,31.70
2018-11-28T22:18:18.949Z,29.47
2018-11-28T22:20:47.980Z,28.23
2018-11-28T22:23:17.407Z,32.23
2018-11-28T22:25:47.898Z,34.20
2018-11-28T22:28:18.254Z,36.27
2018-11-28T22:30:48.598Z,30.07
2018-11-28T22:33:19.206Z,38.10
2018-11-28T22:35:49.680Z,32.93
2018-11-28T22:38:20.110Z,33.43
2018-11-28T22:40:50.342Z,33.23
2018-11-28T22:43:21.109Z,32.33
2018-11-28T22:45:50.434Z,29.40
2018-11-28T22:48:20.278Z,30.53
2018-11-28T22:50:50.461Z,30.47
2018-11-28T22:53:20.261Z,30.57
2018-11-28T22:55:49.426Z,30.67
2018-11-28T22:58:19.092Z,29.77
2018-11-28T23:00:54.074Z,30.70
2018-11-28T23:03:23.597Z,30.63
2018-11-28T23:05:53.422Z,32.60
2018-11-28T23:08:24.300Z,29.03
2018-11-28T23:10:57.105Z,28.97
2018-11-28T23:13:27.497Z,35.13
2018-11-28T23:15:57.643Z,31.63
2018-11-28T23:18:27.451Z,29.53
2018-11-28T23:20:58.415Z,33.37
2018-11-28T23:23:29.704Z,33.03
2018-11-28T23:26:00.238Z,35.87
2018-11-28T23:28:29.876Z,33.43
2018-11-28T23:30:59.767Z,34.00
2018-11-28T23:33:29.444Z,29.77
2018-11-28T23:35:59.722Z,34.30
2018-11-28T23:38:30.219Z,35.77
2018-11-28T23:40:59.298Z,32.23
2018-11-28T23:43:29.694Z,35.07
2018-11-28T23:45:59.471Z,35.17
2018-11-28T23:48:29.668Z,31.43
2018-11-28T23:50:59.897Z,36.37
2018-11-28T23:53:29.802Z,35.47
2018-11-28T23:55:59.127Z,32.97
2018-11-28T23:58:30.092Z,34.73
